Sweeney Granite Mountains, California Weather observations

Data are for 10 minute period ending at time listed.
 Day   Time   Solar   Ave.   Ave.  Ave.  Vector  Max.   Baro.   Total    
  of    of     Rad.   Air    Rel.  Wind   Wind   Wind  Press.  Precip.   
Year   Day            Temp.  Hum.  Speed  Dir.   Gust                    
2015   (PST)  Kw/m2    F      %     mph   deg.    mph    mb.     in.     
-------------------------------------------------------------------------
 148   16:10   0.26   81.8    11    3.9   171     9.6   869.2    0.00 
 148   16:20   0.23   80.5    11    4.7   214     9.9   869.1    0.00 
 148   16:30   0.27   80.3    11    4.6   211     9.9   869.1    0.00 
 148   16:40   0.30   80.7    10    4.2   209     9.3   869.1    0.00 
 148   16:50   0.25   80.8    10    4.1   252     9.0   869.0    0.00 
 148   17:00   0.18   80.4    11    3.2   214     8.3   868.9    0.00 
 148   17:10   0.23   80.2    10    3.3   221     6.8   868.9    0.00 
 148   17:20   0.31   81.3    10    3.9   212     7.4   868.9    0.00 
 148   17:30   0.26   81.9    10    2.7   239     5.3   868.9    0.00 
 148   17:40   0.17   81.0    10    3.0   224     7.1   868.9    0.00 
 148   17:50   0.09   80.3    10    2.0   219     4.5   868.9    0.00 
 148   18:00   0.06   78.9    11    1.4   198     3.5   868.9    0.00 
 148   18:10   0.04   78.3    11    0.4    89     2.0   869.0    0.00 
 148   18:20   0.03   77.6    11    1.3   237     2.3   869.0    0.00 
 148   18:30   0.02   76.4    12    1.6   280     2.9   869.1    0.00 
 148   18:40   0.01   75.5    12    1.7   273     2.6   869.1    0.00 
 148   18:50   0.00   75.3    12    1.2   276     2.3   869.1    0.00 
 148   19:00   0.00   74.4    12    0.8   297     1.5   869.2    0.00 
 148   19:10   0.00   72.1    13    1.9   278     2.6   869.3    0.00 
 148   19:20   0.00   72.3    13    1.5   285     2.0   869.2    0.00 
 148   19:30   0.00   70.6    14    1.7   286     2.1   869.3    0.00 
 148   19:40   0.00   71.1    14    2.6   292     3.4   869.4    0.00 
 148   19:50   0.00   70.4    14    2.9   272     3.7   869.4    0.00 
 148   20:00   0.00   70.0    14    2.8   278     3.8   869.5    0.00 
 148   20:10   0.00   69.7    14    3.2   276     3.9   869.6    0.00 
 148   20:20   0.00   72.1    13    2.2   278     2.9   869.7    0.00 
 148   20:30   0.00   67.3    15    2.5   278     3.7   869.8    0.00 
 148   20:40   0.00   67.5    16    3.6   273     4.3   869.9    0.00 
 148   20:50   0.00   68.1    15    3.7   279     4.7   869.9    0.00 
 148   21:00   0.00   70.8    14    3.3   277     5.0   870.0    0.00 
 148   21:10   0.00   70.3    15    3.6   285     4.5   870.0    0.00 
 148   21:20   0.00   69.8    15    3.7   274     4.6   870.0    0.00 
 148   21:30   0.00   69.6    15    3.2   278     4.1   870.0    0.00 
 148   21:40   0.00   70.7    15    3.4   280     5.0   870.1    0.00 
 148   21:50   0.00   70.3    15    3.3   279     4.1   870.0    0.00 
 148   22:00   0.00   69.1    16    3.5   282     4.5   870.0    0.00 
 148   22:10   0.00   69.3    16    3.3   282     4.0   870.0    0.00 
 148   22:20   0.00   68.1    17    3.2   278     4.2   869.9    0.00 
 148   22:30   0.00   70.0    16    3.0   281     3.7   869.9    0.00 
 148   22:40   0.00   69.9    16    3.2   279     4.5   869.9    0.00 
 148   22:50   0.00   69.6    16    3.4   284     4.2   869.8    0.00 
 148   23:00   0.00   68.6    17    3.3   274     3.9   869.7    0.00 
 148   23:10   0.00   67.6    18    3.3   280     3.9   869.7    0.00 
 148   23:20   0.00   68.9    17    3.7   274     4.5   869.7    0.00 
 148   23:30   0.00   68.4    18    3.1   276     4.1   869.7    0.00 
 148   23:40   0.00   68.8    19    2.8   283     3.9   869.6    0.00 
 148   23:50   0.00   68.8    21    3.0   280     4.5   869.5    0.00 
 149    0:00   0.00   66.9    22    3.0   284     3.9   869.5    0.00 
 149    0:10   0.00   65.3    24    3.4   277     4.3   869.4    0.00 
 149    0:20   0.00   64.9    26    3.6   273     4.4   869.4    0.00 
 149    0:30   0.00   65.9    26    3.2   274     4.2   869.4    0.00 
 149    0:40   0.00   65.5    26    2.8   276     3.9   869.4    0.00 
 149    0:50   0.00   65.6    27    2.4   278     3.3   869.4    0.00 
 149    1:00   0.00   64.8    27    2.8   280     3.4   869.3    0.00 
 149    1:10   0.00   63.4    28    2.8   269     3.5   869.2    0.00 
 149    1:20   0.00   64.5    28    3.4   269     4.4   869.2    0.00 
 149    1:30   0.00   66.1    28    3.5   254     5.5   869.1    0.00 
 149    1:40   0.00   69.0    26    4.1   257     5.9   869.2    0.00 
 149    1:50   0.00   67.9    26    2.4   260     5.0   869.1    0.00 
 149    2:00   0.00   68.1    26    2.8   282     4.4   869.0    0.00 
 149    2:10   0.00   66.6    27    3.4   287     4.3   869.0    0.00 
 149    2:20   0.00   65.4    27    3.6   280     4.8   869.1    0.00 
 149    2:30   0.00   66.2    25    5.1   280     7.2   869.0    0.00 
 149    2:40   0.00   66.6    23    4.8   266     6.1   869.0    0.00 
 149    2:50   0.00   67.3    22    3.0   276     4.4   869.1    0.00 
 149    3:00   0.00   67.9    22    3.5   282     4.5   869.1    0.00 
 149    3:10   0.00   67.3    22    4.2   276     5.3   869.1    0.00 
 149    3:20   0.00   66.1    23    4.8   264     6.4   869.0    0.00 
 149    3:30   0.00   65.7    23    5.7   271     6.9   869.1    0.00 
 149    3:40   0.00   66.9    22    5.6   271     6.6   869.1    0.00 
 149    3:50   0.00   65.0    23    5.3   274     7.0   869.2    0.00 
 149    4:00   0.00   67.7    20    6.2   268     7.5   869.2    0.00 
 149    4:10   0.00   67.2    20    5.9   270     7.7   869.2    0.00 
 149    4:20   0.00   68.1    20    4.8   274     6.1   869.3    0.00 
 149    4:30   0.00   68.1    19    4.4   275     6.0   869.4    0.00 
 149    4:40   0.00   68.4    19    4.1   270     5.7   869.5    0.00 
 149    4:50   0.00   68.6    19    4.5   280     6.1   869.6    0.00 
 149    5:00   0.01   69.2    19    3.9   275     5.8   869.7    0.00 
 149    5:10   0.01   69.2    18    4.3   278     6.1   869.8    0.00 
 149    5:20   0.02   69.2    18    5.0   281     6.7   869.8    0.00 
 149    5:30   0.03   69.5    18    3.7   288     5.6   869.9    0.00 
 149    5:40   0.11   70.8    19    0.7   319     2.7   870.1    0.00 
 149    5:50   0.17   74.6    18    0.5   285     2.0   870.2    0.00 
 149    6:00   0.20   76.7    17    0.7   330     2.1   870.3    0.00 
 149    6:10   0.24   76.8    17    1.3   310     2.6   870.4    0.00 
 149    6:20   0.28   78.3    16    1.2    23     4.1   870.5    0.00 
 149    6:30   0.31   78.6    14    3.1    67     5.0   870.6    0.00 
 149    6:40   0.35   78.3    14    4.4    76     6.6   870.7    0.00 
 149    6:50   0.39   78.8    14    3.6    90     5.8   870.8    0.00 
 149    7:00   0.42   79.0    15    2.9    70     4.4   870.9    0.00 
 149    7:10   0.46   79.6    15    3.0    91     5.8   870.9    0.00 
 149    7:20   0.49   79.4    15    3.5    75     6.3   871.0    0.00 
 149    7:30   0.53   79.8    15    3.7    72     8.1   871.1    0.00 
 149    7:40   0.56   80.0    14    4.0    71     7.5   871.2    0.00 
 149    7:50   0.60   80.5    14    3.8   126     7.5   871.3    0.00 
 149    8:00   0.63   79.9    14    6.5   123    11.5   871.3    0.00 
 149    8:10   0.66   80.0    14    6.0   119    10.2   871.4    0.00 
 149    8:20   0.70   80.9    14    4.9    87     9.6   871.4    0.00 
 149    8:30   0.73   80.8    13    5.7   101     9.3   871.3    0.00 
 149    8:40   0.76   80.2    14    7.4   121    12.9   871.3    0.00 
 149    8:50   0.78   79.6    14    7.5   128    11.3   871.4    0.00 
 149    9:00   0.81   79.9    15    7.0   129    12.1   871.3    0.00 
 149    9:10   0.84   80.5    14    7.4   117    12.5   871.4    0.00 
 149    9:20   0.86   80.2    15    7.6   129    13.2   871.5    0.00 
 149    9:30   0.89   80.8    14    9.3   119    14.0   871.5    0.00 
 149    9:40   0.91   80.8    14    7.6   121    13.2   871.5    0.00 
 149    9:50   0.93   80.4    14    8.7   132    14.0   871.5    0.00 
 149   10:00   0.95   81.5    13    8.0   119    12.4   871.5    0.00 
 149   10:10   0.96   81.6    13    7.2   133    13.8   871.5    0.00 
 149   10:20   0.98   82.0    13    8.1   129    15.3   871.5    0.00 
 149   10:30   0.99   81.7    13    8.6   111    14.5   871.5    0.00 
 149   10:40   1.00   82.0    13    7.3   119    17.5   871.4    0.00 
 149   10:50   1.01   81.1    13    6.3   133    13.4   871.4    0.00 
 149   11:00   1.02   82.5    12    6.4    86    13.7   871.3    0.00 
 149   11:10   1.03   82.3    12    8.6   133    17.3   871.3    0.00 
 149   11:20   1.03   82.5    12    8.1   124    15.1   871.2    0.00 
 149   11:30   1.03   82.3    12    8.2   133    15.1   871.2    0.00 
 149   11:40   1.03   82.7    12    8.6   116    16.1   871.2    0.00 
 149   11:50   1.03   82.4    12    7.7   117    17.2   871.2    0.00 
 149   12:00   1.03   83.2    12    8.2    97    15.9   871.2    0.00 
 149   12:10   1.03   83.2    12    9.9   126    18.3   871.0    0.00 
 149   12:20   1.00   83.0    12    7.8   114    17.2   870.9    0.00 
 149   12:30   1.01   84.2    11    7.1    89    13.8   870.8    0.00 
 149   12:40   1.01   83.5    12   11.2   133    19.2   870.7    0.00 
 149   12:50   1.00   82.9    12   10.0   129    21.2   870.7    0.00 
 149   13:00   0.97   82.5    12    8.2   128    16.7   870.6    0.00 
 149   13:10   0.98   83.7    11   11.1   122    17.8   870.5    0.00 
 149   13:20   0.95   84.5    11    6.3   135    16.1   870.4    0.00 
 149   13:30   0.95   84.5    11    8.2   120    15.3   870.3    0.00 
 149   13:40   0.93   84.5    11    7.8   122    16.1   870.1    0.00 
 149   13:50   0.92   85.7    11    3.8   173    11.7   870.1    0.00 
 149   14:00   0.90   86.0    10    6.1   172    13.6   870.0    0.00 
 149   14:10   0.85   84.9    10   13.8   128    18.6   869.9    0.00 
 149   14:20   0.85   84.5    10    6.2   121    12.6   869.8    0.00 
 149   14:30   0.82   84.7    10    8.1   136    17.2   869.7    0.00 
 149   14:40   0.79   85.0    10    4.0   145    13.1   869.6    0.00 
 149   14:50   0.77   84.5    10    6.9   122    15.6   869.5    0.00 
 149   15:00   0.74   84.8    10    6.4   140    16.9   869.4    0.00 
 149   15:10   0.71   84.4    10    8.8   139    15.3   869.4    0.00 
 149   15:20   0.67   83.7    10    7.5   126    14.9   869.4    0.00 
 149   15:30   0.58   84.2    10    4.5   224     9.6   869.4    0.00 
 149   15:40   0.57   84.7     9    6.4   125    15.8   869.3    0.00 
 149   15:50   0.59   84.6     9    2.9   170     8.7   869.3    0.00 
 149   16:00   0.50   84.5     9    6.8   112    11.8   869.3    0.00 

Return to Sweeney Granite Mountains graphs page.


Western Regional Climate Center,wrcc@dri.edu